Time;durP1;ratioP1;P1;durP2;ratioP2;P2;SDS_P1;SDS_P2;PMS_P1;PMS_P2;Temp;Humidity;BMP_temperature;BMP_pressure;BME280_temperature;BME280_humidity;BME280_pressure;Samples;Min_cycle;Max_cycle;Signal;HPM_P1;HPM_P2
2022/11/29 00:01:30;;;;;;;29.80;19.87;;;4.80;99.90;;;;;;5051201;28;20043;-82
2022/11/29 00:03:56;;;;;;;20.47;15.13;;;4.80;99.90;;;;;;5050941;28;20082;-82
2022/11/29 00:06:26;;;;;;;17.70;11.63;;;4.80;99.90;;;;;;5050803;28;20025;-81
2022/11/29 00:08:56;;;;;;;16.70;11.20;;;4.80;99.90;;;;;;5053419;28;20017;-81
2022/11/29 00:14:12;;;;;;;16.33;11.47;;;4.80;99.90;;;;;;5054362;28;20044;-81
2022/11/29 00:16:39;;;;;;;13.80;10.87;;;4.80;99.90;;;;;;5054407;28;20071;-81
2022/11/29 00:19:06;;;;;;;15.43;9.10;;;4.80;99.90;;;;;;5054379;28;20021;-81
2022/11/29 00:21:31;;;;;;;11.47;8.23;;;4.80;99.90;;;;;;5054047;28;20052;-81
2022/11/29 00:23:57;;;;;;;10.97;8.03;;;4.90;99.90;;;;;;5054256;28;20485;-82
2022/11/29 00:26:23;;;;;;;9.97;7.20;;;4.90;99.90;;;;;;5054582;28;20048;-81
2022/11/29 00:28:48;;;;;;;13.07;7.27;;;4.90;99.90;;;;;;5054246;28;20024;-81
2022/11/29 00:31:31;;;;;;;11.83;6.77;;;4.90;99.90;;;;;;5054026;28;20036;-81
2022/11/29 00:33:58;;;;;;;10.33;6.67;;;4.90;99.90;;;;;;5054365;28;20069;-81
2022/11/29 00:36:24;;;;;;;9.30;6.40;;;4.90;99.90;;;;;;5054114;28;20051;-81
2022/11/29 00:38:50;;;;;;;9.07;6.93;;;4.90;99.90;;;;;;5036083;28;20045;-81
2022/11/29 00:41:15;;;;;;;8.33;6.17;;;4.90;99.90;;;;;;5035746;28;20393;-81
2022/11/29 00:43:41;;;;;;;8.23;5.70;;;4.90;99.90;;;;;;5054102;28;20079;-81
2022/11/29 00:46:07;;;;;;;10.43;5.77;;;5.00;99.90;;;;;;5053987;28;20394;-81
2022/11/29 00:48:34;;;;;;;9.00;5.73;;;4.90;99.90;;;;;;5061735;28;20052;-81
2022/11/29 00:50:59;;;;;;;9.40;6.20;;;5.00;99.90;;;;;;5073741;28;20035;-81
2022/11/29 00:53:25;;;;;;;11.10;6.13;;;4.90;99.90;;;;;;5055683;28;20033;-81
2022/11/29 00:55:52;;;;;;;9.37;6.17;;;5.00;99.90;;;;;;5073680;28;20044;-81
2022/11/29 00:58:18;;;;;;;10.77;6.20;;;5.00;99.90;;;;;;5073377;28;20028;-81
2022/11/29 01:00:44;;;;;;;10.87;7.17;;;5.00;99.90;;;;;;5073545;28;20489;-81
2022/11/29 01:03:12;;;;;;;9.83;6.80;;;5.00;99.90;;;;;;5073427;28;20111;-81
2022/11/29 01:05:39;;;;;;;10.07;6.57;;;5.00;99.90;;;;;;5073414;28;20036;-81
2022/11/29 01:08:05;;;;;;;9.57;7.03;;;5.00;99.90;;;;;;5073542;28;20029;-81
2022/11/29 01:10:31;;;;;;;11.73;7.27;;;5.00;99.90;;;;;;5073431;28;20468;-81
2022/11/29 01:12:56;;;;;;;11.97;7.70;;;5.00;99.90;;;;;;5073461;28;20036;-81
2022/11/29 01:15:22;;;;;;;11.67;7.23;;;5.00;99.90;;;;;;5073055;28;20592;-81
2022/11/29 01:17:48;;;;;;;9.90;7.20;;;5.00;99.90;;;;;;5073022;28;20028;-81
2022/11/29 01:20:14;;;;;;;10.27;7.33;;;5.00;99.90;;;;;;5071844;28;20020;-81
2022/11/29 01:22:40;;;;;;;10.23;7.40;;;5.00;99.90;;;;;;5073053;28;20054;-81
2022/11/29 01:25:07;;;;;;;11.37;6.93;;;5.00;99.90;;;;;;5072933;28;20040;-81
2022/11/29 01:27:33;;;;;;;9.13;6.50;;;5.00;99.90;;;;;;5072610;28;20449;-81
2022/11/29 01:29:59;;;;;;;10.37;7.20;;;5.00;99.90;;;;;;5072615;28;20028;-81
2022/11/29 01:32:24;;;;;;;9.90;6.80;;;5.00;99.90;;;;;;5072635;28;20040;-81
2022/11/29 01:34:50;;;;;;;10.90;6.47;;;5.00;99.90;;;;;;5072865;28;20028;-81
2022/11/29 01:37:16;;;;;;;10.80;6.33;;;5.00;99.90;;;;;;5072753;28;20040;-81
2022/11/29 01:39:41;;;;;;;9.87;7.10;;;5.00;99.90;;;;;;5072491;28;20384;-81
2022/11/29 01:42:10;;;;;;;9.30;6.10;;;5.00;99.90;;;;;;5072368;28;20549;-81
2022/11/29 01:44:36;;;;;;;8.97;5.90;;;5.00;99.90;;;;;;5072419;28;20473;-81
2022/11/29 01:47:01;;;;;;;7.77;6.60;;;5.00;99.90;;;;;;5072360;28;20095;-81
2022/11/29 01:49:41;;;;;;;11.47;6.47;;;5.00;99.90;;;;;;5071048;28;20056;-79
2022/11/29 01:52:14;;;;;;;9.97;7.17;;;5.00;99.90;;;;;;5071872;28;20032;-79
2022/11/29 01:54:43;;;;;;;10.27;6.63;;;5.00;99.90;;;;;;5071608;28;20081;-79
2022/11/29 01:57:10;;;;;;;9.53;7.00;;;5.00;99.90;;;;;;5071345;28;20032;-79
2022/11/29 01:59:40;;;;;;;8.73;6.53;;;5.00;99.90;;;;;;5056261;28;20421;-79
2022/11/29 02:02:11;;;;;;;8.63;7.30;;;5.00;99.90;;;;;;5051383;28;20037;-79
2022/11/29 02:04:40;;;;;;;9.67;6.63;;;5.00;99.90;;;;;;5051362;28;20029;-79
2022/11/29 02:07:06;;;;;;;9.63;7.00;;;5.00;99.90;;;;;;5051229;28;20028;-79
2022/11/29 02:09:32;;;;;;;10.70;6.80;;;5.00;99.90;;;;;;5051707;28;20040;-80
2022/11/29 02:11:58;;;;;;;10.83;6.57;;;5.00;99.90;;;;;;5051361;28;20032;-80
2022/11/29 02:14:26;;;;;;;8.17;6.37;;;5.00;99.90;;;;;;5051539;28;20384;-80
2022/11/29 02:17:30;;;;;;;8.20;6.23;;;5.00;99.90;;;;;;5051423;28;20048;-80
2022/11/29 02:20:26;;;;;;;8.17;6.50;;;5.00;99.90;;;;;;5051393;28;20094;-80
2022/11/29 02:22:54;;;;;;;;;;;5.00;99.90;;;;;;5051557;28;20065;-80
2022/11/29 02:25:52;;;;;;;8.07;6.10;;;5.00;99.90;;;;;;5051258;28;19904;-80
2022/11/29 02:28:45;;;;;;;12.17;6.43;;;5.00;99.90;;;;;;5051125;28;20029;-80
2022/11/29 02:31:22;;;;;;;9.60;6.47;;;5.00;99.90;;;;;;5069777;28;20028;-80
2022/11/29 02:34:00;;;;;;;9.60;7.00;;;5.00;99.90;;;;;;5070970;28;20070;-80
2022/11/29 02:36:28;;;;;;;11.77;6.87;;;5.00;99.90;;;;;;5071283;28;20020;-80
2022/11/29 02:39:15;;;;;;;11.37;7.03;;;5.00;99.90;;;;;;5070974;28;20495;-80
2022/11/29 02:42:07;;;;;;;9.83;6.57;;;5.00;99.90;;;;;;5071101;28;20025;-80
2022/11/29 02:45:05;;;;;;;9.87;7.00;;;5.00;99.90;;;;;;5071020;28;20024;-80
2022/11/29 02:48:01;;;;;;;10.60;6.93;;;5.00;99.90;;;;;;5070782;28;20020;-80
2022/11/29 02:50:53;;;;;;;11.73;7.15;;;5.00;99.90;;;;;;5071154;28;20733;-80
2022/11/29 02:53:34;;;;;;;10.17;7.20;;;5.00;99.90;;;;;;5070745;28;20020;-80
2022/11/29 02:56:34;;;;;;;12.80;7.37;;;5.00;99.90;;;;;;5070596;28;20020;-80
2022/11/29 02:59:13;;;;;;;9.00;6.63;;;5.00;99.90;;;;;;5060690;28;20035;-80
2022/11/29 03:01:58;;;;;;;9.17;6.60;;;5.00;99.90;;;;;;5051088;28;20040;-80
2022/11/29 03:04:27;;;;;;;9.90;6.97;;;5.00;99.90;;;;;;5050698;28;20021;-80
2022/11/29 03:07:04;;;;;;;8.97;6.67;;;5.00;99.90;;;;;;5050703;28;20767;-80
2022/11/29 03:09:54;;;;;;;11.60;6.43;;;5.00;99.90;;;;;;5050565;28;20056;-80
2022/11/29 03:12:31;;;;;;;8.50;6.03;;;5.00;99.90;;;;;;5050717;28;20028;-80
2022/11/29 03:15:18;;;;;;;9.33;5.80;;;5.00;99.90;;;;;;5050657;28;20041;-80
2022/11/29 03:18:09;;;;;;;8.63;5.60;;;5.00;99.90;;;;;;5050778;28;20029;-80
2022/11/29 03:20:55;;;;;;;7.70;5.27;;;5.00;99.90;;;;;;5050610;28;20036;-80
2022/11/29 03:23:23;;;;;;;;;;;5.00;99.90;;;;;;5050871;28;20040;-80
2022/11/29 03:26:02;;;;;;;8.37;5.63;;;5.00;99.90;;;;;;5050570;28;20444;-80
2022/11/29 03:28:33;;;;;;;8.67;5.20;;;5.00;99.90;;;;;;5050506;28;20479;-80
2022/11/29 03:31:29;;;;;;;6.80;4.90;;;5.00;99.90;;;;;;5067708;28;20033;-80
2022/11/29 03:34:12;;;;;;;12.55;5.70;;;5.00;99.90;;;;;;5056704;28;20401;-80
2022/11/29 03:36:44;;;;;;;8.13;5.50;;;5.00;99.90;;;;;;5070654;28;20028;-80
2022/11/29 03:39:20;;;;;;;7.43;5.43;;;5.00;99.90;;;;;;5070683;28;20021;-80
2022/11/29 03:41:48;;;;;;;;;;;5.00;99.90;;;;;;5071123;28;20044;-80
2022/11/29 03:44:25;;;;;;;8.50;5.40;;;5.00;99.90;;;;;;5074187;28;20357;-80
2022/11/29 03:47:12;;;;;;;8.57;5.17;;;5.00;99.90;;;;;;5074792;28;20082;-80
2022/11/29 03:49:55;;;;;;;7.50;5.53;;;5.00;99.90;;;;;;5074482;28;20501;-80
2022/11/29 03:52:23;;;;;;;7.60;5.50;;;5.00;99.90;;;;;;5074491;28;20036;-80
2022/11/29 03:55:14;;;;;;;7.97;5.17;;;5.00;99.90;;;;;;5073970;28;20048;-81
2022/11/29 03:58:17;;;;;;;7.27;4.93;;;5.00;99.90;;;;;;5073687;28;20697;-80
2022/11/29 04:00:48;;;;;;;6.87;5.07;;;5.00;99.90;;;;;;5053895;28;20530;-80
2022/11/29 04:03:29;;;;;;;7.03;5.30;;;5.00;99.90;;;;;;5053816;28;20049;-80
2022/11/29 04:06:20;;;;;;;8.80;5.33;;;5.00;99.90;;;;;;5053865;28;20667;-80
2022/11/29 04:08:51;;;;;;;8.57;5.23;;;5.00;99.90;;;;;;5034013;28;20037;-80
2022/11/29 04:11:53;;;;;;;7.07;4.67;;;5.00;99.90;;;;;;5053634;28;20033;-80
2022/11/29 04:15:04;;;;;;;7.80;4.77;;;5.00;99.90;;;;;;5053862;28;20025;-80
2022/11/29 04:17:56;;;;;;;8.40;4.87;;;5.00;99.90;;;;;;5053394;28;20373;-80
2022/11/29 04:20:58;;;;;;;6.93;4.37;;;5.00;99.90;;;;;;5053351;28;20024;-80
2022/11/29 04:23:32;;;;;;;5.27;4.00;;;5.00;99.90;;;;;;5053386;28;20028;-80
2022/11/29 04:26:12;;;;;;;6.05;4.45;;;5.00;99.90;;;;;;5053661;28;20517;-80
2022/11/29 04:28:52;;;;;;;5.53;3.90;;;5.00;99.90;;;;;;5053254;28;20040;-80
2022/11/29 04:31:31;;;;;;;8.17;4.20;;;5.00;99.90;;;;;;5053176;28;20029;-80
2022/11/29 04:33:59;;;;;;;7.83;4.30;;;5.00;99.90;;;;;;5059025;28;20038;-80
2022/11/29 04:36:43;;;;;;;4.87;3.63;;;5.00;99.90;;;;;;5073140;28;20035;-80
2022/11/29 04:39:52;;;;;;;6.73;4.43;;;5.00;99.90;;;;;;5073049;28;20048;-80
2022/11/29 04:42:26;;;;;;;5.97;4.33;;;5.00;99.90;;;;;;5073089;28;20028;-80
2022/11/29 04:44:52;;;;;;;8.13;4.83;;;5.00;99.90;;;;;;5073164;28;20477;-80
2022/11/29 04:47:36;;;;;;;6.67;4.10;;;5.00;99.90;;;;;;5073442;28;20028;-80
2022/11/29 04:50:07;;;;;;;7.80;4.30;;;5.00;99.90;;;;;;5073233;28;20036;-81
2022/11/29 04:52:54;;;;;;;6.50;4.77;;;5.00;99.90;;;;;;5073656;28;20032;-80
2022/11/29 04:55:42;;;;;;;7.10;4.80;;;5.00;99.90;;;;;;5072539;28;20020;-80
2022/11/29 04:58:50;;;;;;;9.53;5.00;;;5.00;99.90;;;;;;5072056;28;20037;-80
2022/11/29 05:01:53;;;;;;;8.17;5.30;;;5.00;99.90;;;;;;5073859;28;20024;-79
2022/11/29 05:04:26;;;;;;;7.40;5.10;;;5.00;99.90;;;;;;5074497;28;20377;-80
2022/11/29 05:07:26;;;;;;;7.53;5.50;;;5.00;99.90;;;;;;5073395;28;20021;-80
2022/11/29 05:10:05;;;;;;;8.17;5.63;;;5.00;99.90;;;;;;5074218;28;20082;-79
2022/11/29 05:13:05;;;;;;;8.90;6.03;;;5.00;99.90;;;;;;5074321;28;20085;-81
2022/11/29 05:15:57;;;;;;;12.10;5.50;;;5.00;99.90;;;;;;5072864;28;20021;-80
2022/11/29 05:18:40;;;;;;;9.80;6.20;;;5.00;99.90;;;;;;5072104;28;20099;-75
2022/11/29 05:21:39;;;;;;;8.63;6.27;;;5.10;99.90;;;;;;5069130;28;20377;-75
2022/11/29 05:24:26;;;;;;;9.33;6.17;;;5.00;99.90;;;;;;5054793;28;20794;-75
2022/11/29 05:27:14;;;;;;;9.43;6.10;;;5.10;99.90;;;;;;5069797;28;20134;-80
2022/11/29 05:29:40;;;;;;;11.07;6.20;;;5.00;99.90;;;;;;5077458;28;20437;-81
2022/11/29 05:32:25;;;;;;;9.33;6.03;;;5.00;99.90;;;;;;5073563;28;20107;-80
2022/11/29 05:35:01;;;;;;;9.35;6.47;;;5.10;99.90;;;;;;5085963;28;20482;-80
2022/11/29 05:37:48;;;;;;;8.30;5.63;;;5.00;99.90;;;;;;5074499;28;20041;-81
2022/11/29 05:40:55;;;;;;;9.87;5.67;;;5.10;99.90;;;;;;5073392;28;20033;-81
2022/11/29 05:43:45;;;;;;;9.00;7.20;;;5.10;99.90;;;;;;5015966;28;20051;-81
2022/11/29 05:46:24;;;;;;;8.40;6.33;;;5.10;99.90;;;;;;5062261;28;20443;-81
2022/11/29 05:49:16;;;;;;;9.30;5.93;;;5.10;99.90;;;;;;5057866;28;20053;-76
2022/11/29 05:52:16;;;;;;;7.40;5.97;;;5.10;99.90;;;;;;5051968;28;20449;-81
2022/11/29 05:54:48;;;;;;;8.90;6.37;;;5.10;99.90;;;;;;4964721;28;20043;-80
2022/11/29 05:57:36;;;;;;;8.93;6.33;;;5.10;99.90;;;;;;5053159;28;20031;-80
2022/11/29 06:00:05;;;;;;;10.07;6.27;;;5.10;99.90;;;;;;5046900;28;20037;-81
2022/11/29 06:03:15;;;;;;;8.23;5.97;;;5.10;99.90;;;;;;5053123;28;20334;-80
2022/11/29 06:05:50;;;;;;;9.00;5.73;;;5.10;99.90;;;;;;5037086;28;20041;-80
2022/11/29 06:08:41;;;;;;;8.00;5.80;;;5.10;99.90;;;;;;5066210;28;20074;-80
2022/11/29 06:11:29;;;;;;;7.20;5.10;;;5.10;99.90;;;;;;5072836;28;20047;-81
2022/11/29 06:14:26;;;;;;;7.53;5.13;;;5.10;99.90;;;;;;5072530;28;20032;-81
2022/11/29 06:17:08;;;;;;;10.50;5.60;;;5.10;99.90;;;;;;5064571;28;20059;-81
2022/11/29 06:20:03;;;;;;;7.37;5.17;;;5.10;99.90;;;;;;5075251;28;20028;-80
2022/11/29 06:22:34;;;;;;;8.80;4.93;;;5.10;99.90;;;;;;5092672;28;20024;-82
2022/11/29 06:25:15;;;;;;;8.23;5.47;;;5.10;99.90;;;;;;5092914;28;20033;-81
2022/11/29 06:27:59;;;;;;;7.57;5.20;;;5.10;99.90;;;;;;5093010;28;20016;-82
2022/11/29 06:31:02;;;;;;;7.93;5.30;;;5.10;99.90;;;;;;5092977;28;20030;-81
2022/11/29 06:33:55;;;;;;;8.73;5.97;;;5.10;99.90;;;;;;5076524;28;20043;-82
2022/11/29 06:36:49;;;;;;;8.23;6.53;;;5.10;99.90;;;;;;5093006;28;20035;-82
2022/11/29 06:39:15;;;;;;;10.27;6.53;;;5.10;99.90;;;;;;5092880;28;20106;-80
2022/11/29 06:41:40;;;;;;;9.57;7.40;;;5.10;99.90;;;;;;5092457;28;20114;-80
2022/11/29 06:44:07;;;;;;;12.30;8.47;;;5.10;99.90;;;;;;5092077;28;20066;-80
2022/11/29 06:46:38;;;;;;;9.27;7.40;;;5.10;99.90;;;;;;5092400;28;20055;-80
2022/11/29 06:49:13;;;;;;;12.13;7.67;;;5.10;99.90;;;;;;5091830;28;20190;-80
2022/11/29 06:52:00;;;;;;;9.57;7.15;;;5.10;99.90;;;;;;5092292;28;20025;-80
2022/11/29 06:54:31;;;;;;;9.93;7.17;;;5.10;99.90;;;;;;5092310;28;20069;-80
2022/11/29 06:57:17;;;;;;;9.73;6.60;;;5.10;99.90;;;;;;5092052;28;20028;-80
2022/11/29 07:00:10;;;;;;;9.15;5.95;;;5.10;99.90;;;;;;5076142;28;20020;-80
2022/11/29 07:03:13;;;;;;;7.83;5.07;;;5.10;99.90;;;;;;5071858;28;20050;-80
2022/11/29 07:05:39;;;;;;;8.90;5.50;;;5.10;99.90;;;;;;5071942;28;20100;-80
2022/11/29 07:08:17;;;;;;;9.33;4.87;;;5.10;99.90;;;;;;5072041;28;20020;-80
2022/11/29 07:10:45;;;;;;;8.13;4.80;;;5.10;99.90;;;;;;5089533;28;20028;-80
2022/11/29 07:13:15;;;;;;;10.40;5.00;;;5.10;99.90;;;;;;5092075;28;20027;-81
2022/11/29 07:16:04;;;;;;;8.77;5.80;;;5.10;99.90;;;;;;5092163;28;20024;-80
2022/11/29 07:18:36;;;;;;;9.17;5.30;;;5.20;99.90;;;;;;5094810;28;20051;-81
2022/11/29 07:21:24;;;;;;;11.67;5.40;;;5.10;99.90;;;;;;5094237;28;20540;-80
2022/11/29 07:24:12;;;;;;;8.20;4.87;;;5.10;99.90;;;;;;5071585;28;20893;-81
2022/11/29 07:26:52;;;;;;;9.83;4.40;;;5.20;99.90;;;;;;5071534;28;20056;-80
2022/11/29 07:29:27;;;;;;;9.23;4.40;;;5.20;99.90;;;;;;5057976;22;20058;-80
2022/11/29 07:32:09;;;;;;;10.95;4.88;;;5.20;99.90;;;;;;5001568;28;20034;-81
2022/11/29 07:35:02;;;;;;;6.70;4.23;;;5.20;99.90;;;;;;4998793;28;20053;-80
2022/11/29 07:37:43;;;;;;;7.37;4.90;;;5.20;99.90;;;;;;5000622;28;20033;-80
2022/11/29 07:40:45;;;;;;;7.80;4.87;;;5.20;99.90;;;;;;4999266;28;20036;-80
2022/11/29 07:43:53;;;;;;;6.73;4.67;;;5.20;99.90;;;;;;4978093;28;20152;-80
2022/11/29 07:46:19;;;;;;;7.27;4.47;;;5.20;99.90;;;;;;4983529;28;20053;-80
2022/11/29 07:48:44;;;;;;;12.80;5.30;;;5.20;99.90;;;;;;5000352;28;20736;-79
2022/11/29 07:51:11;;;;;;;6.53;4.50;;;5.20;99.90;;;;;;5003820;28;20026;-80
2022/11/29 07:53:41;;;;;;;8.27;3.87;;;5.20;99.90;;;;;;5001788;28;20093;-80
2022/11/29 07:56:08;;;;;;;7.60;4.70;;;5.20;99.90;;;;;;5000387;28;20026;-80
2022/11/29 07:58:34;;;;;;;8.03;4.00;;;5.20;99.90;;;;;;5001691;28;20019;-80
2022/11/29 08:01:00;;;;;;;7.17;4.23;;;5.20;99.90;;;;;;5005575;28;20018;-80
2022/11/29 08:03:26;;;;;;;6.50;3.90;;;5.30;99.90;;;;;;4998417;28;20034;-80
2022/11/29 08:05:52;;;;;;;6.63;4.40;;;5.20;99.90;;;;;;5004018;28;20025;-80
2022/11/29 08:08:17;;;;;;;11.13;5.60;;;5.30;99.90;;;;;;5002424;28;20042;-80
2022/11/29 08:10:43;;;;;;;5.90;4.33;;;5.30;99.90;;;;;;4998286;28;20040;-79
2022/11/29 08:13:09;;;;;;;5.90;4.10;;;5.30;99.90;;;;;;4998849;28;20050;-80
2022/11/29 08:15:34;;;;;;;10.80;3.80;;;5.30;99.90;;;;;;5003774;28;20022;-80
2022/11/29 08:18:01;;;;;;;8.47;4.70;;;5.30;99.90;;;;;;5002081;28;20049;-80
2022/11/29 08:20:26;;;;;;;6.23;4.30;;;5.40;99.90;;;;;;4977659;28;20053;-80
2022/11/29 08:22:57;;;;;;;8.57;3.60;;;5.40;99.90;;;;;;4992232;28;20641;-80
2022/11/29 08:25:23;;;;;;;9.40;3.87;;;5.40;99.90;;;;;;4994924;28;20533;-80
2022/11/29 08:27:50;;;;;;;6.63;3.63;;;5.30;99.90;;;;;;4977292;28;20039;-80
2022/11/29 08:30:17;;;;;;;6.60;2.80;;;5.40;99.90;;;;;;4994440;28;20085;-80
2022/11/29 08:32:43;;;;;;;4.53;3.33;;;5.40;99.90;;;;;;4995103;28;20045;-80
2022/11/29 08:35:09;;;;;;;4.30;2.90;;;5.40;99.90;;;;;;5000287;28;20077;-80
2022/11/29 08:37:36;;;;;;;3.97;3.10;;;5.40;99.90;;;;;;4999683;28;20112;-80
2022/11/29 08:40:03;;;;;;;6.77;3.03;;;5.40;99.90;;;;;;4996961;28;20069;-80
2022/11/29 08:42:29;;;;;;;5.97;2.90;;;5.40;99.90;;;;;;4992388;28;20074;-80
2022/11/29 08:44:54;;;;;;;3.97;2.70;;;5.50;99.90;;;;;;4992177;28;20069;-80
2022/11/29 08:47:35;;;;;;;4.60;2.90;;;5.50;99.90;;;;;;4998738;28;20077;-80
2022/11/29 08:50:08;;;;;;;4.47;3.20;;;5.50;99.90;;;;;;4995765;28;20030;-80
2022/11/29 08:55:23;;;;;;;4.83;3.40;;;5.50;99.90;;;;;;4993586;28;20081;-80
2022/11/29 08:57:50;;;;;;;5.50;3.53;;;5.50;99.90;;;;;;5001850;28;20038;-80
2022/11/29 09:00:17;;;;;;;5.50;3.03;;;5.60;99.90;;;;;;5003542;28;20044;-80
2022/11/29 09:02:43;;;;;;;5.37;3.50;;;5.60;99.90;;;;;;5002515;28;20056;-80
2022/11/29 09:05:09;;;;;;;6.57;3.70;;;5.60;99.90;;;;;;4997310;28;20128;-80
2022/11/29 09:07:35;;;;;;;6.53;3.90;;;5.60;99.90;;;;;;4994969;28;20463;-80
2022/11/29 09:10:04;;;;;;;9.37;6.07;;;5.70;99.90;;;;;;4994812;28;20054;-80
2022/11/29 09:12:31;;;;;;;5.17;3.50;;;5.70;99.90;;;;;;4986001;28;20039;-80
2022/11/29 09:14:57;;;;;;;6.27;3.93;;;5.70;99.90;;;;;;4986456;28;20054;-80
2022/11/29 09:17:23;;;;;;;5.17;3.50;;;5.70;99.90;;;;;;4994677;28;20105;-80
2022/11/29 09:19:49;;;;;;;6.77;3.60;;;5.70;99.90;;;;;;4995177;28;20105;-80
2022/11/29 09:22:14;;;;;;;5.60;3.37;;;5.80;99.90;;;;;;5007151;28;20038;-80
2022/11/29 09:24:40;;;;;;;6.93;3.90;;;5.80;99.90;;;;;;4983314;28;20082;-80
2022/11/29 09:27:05;;;;;;;4.27;2.77;;;5.80;99.90;;;;;;4974922;28;20102;-80
2022/11/29 09:29:31;;;;;;;4.70;2.90;;;5.80;99.90;;;;;;4979520;28;20052;-80
2022/11/29 09:31:57;;;;;;;5.43;3.27;;;5.80;99.90;;;;;;4990891;28;20093;-80
2022/11/29 09:34:22;;;;;;;19.77;11.23;;;5.80;99.90;;;;;;4974957;28;20416;-81
2022/11/29 09:36:48;;;;;;;14.60;9.17;;;5.90;99.90;;;;;;4974915;28;20050;-80
2022/11/29 09:39:14;;;;;;;39.10;17.40;;;5.90;99.90;;;;;;4974963;28;20041;-80
2022/11/29 09:41:51;;;;;;;12.37;6.10;;;5.90;99.90;;;;;;4975319;28;20035;-81
2022/11/29 09:44:35;;;;;;;8.10;4.37;;;6.00;99.90;;;;;;4993990;28;20026;-80
2022/11/29 09:47:22;;;;;;;7.07;4.67;;;6.00;99.90;;;;;;4994066;28;20149;-80
2022/11/29 09:49:47;;;;;;;6.00;4.23;;;6.00;99.90;;;;;;4994079;28;20034;-80
2022/11/29 09:52:31;;;;;;;9.17;5.13;;;6.00;99.90;;;;;;4994080;28;20084;-80
2022/11/29 09:55:33;;;;;;;5.57;3.83;;;6.00;99.90;;;;;;4982090;28;20058;-81
2022/11/29 09:58:02;;;;;;;33.93;22.00;;;6.10;99.90;;;;;;4976163;28;20033;-80
2022/11/29 10:00:31;;;;;;;18.43;10.53;;;6.10;99.90;;;;;;4986103;28;20034;-80
2022/11/29 10:03:17;;;;;;;32.27;19.23;;;6.10;99.90;;;;;;4973931;28;20062;-80
2022/11/29 10:05:48;;;;;;;107.23;52.73;;;6.10;99.90;;;;;;4973924;28;20035;-81
2022/11/29 10:08:21;;;;;;;26.00;13.40;;;6.10;99.90;;;;;;4974032;28;20026;-80
2022/11/29 10:10:49;;;;;;;27.30;13.30;;;6.20;99.90;;;;;;4973721;28;20074;-80
2022/11/29 10:13:26;;;;;;;29.80;15.10;;;6.20;99.90;;;;;;4973017;28;20425;-80
2022/11/29 10:15:57;;;;;;;12.47;7.20;;;6.20;99.90;;;;;;4972866;28;20054;-80
2022/11/29 10:18:43;;;;;;;21.83;13.63;;;6.20;99.90;;;;;;4973474;28;20031;-80
2022/11/29 10:21:18;;;;;;;18.47;9.87;;;6.20;99.90;;;;;;4972361;28;20046;-80
2022/11/29 10:23:49;;;;;;;23.17;9.90;;;6.20;99.90;;;;;;4973343;28;20365;-80
2022/11/29 10:26:16;;;;;;;13.17;6.57;;;6.20;99.90;;;;;;4972229;28;20037;-80
2022/11/29 10:28:46;;;;;;;57.10;41.13;;;6.20;99.90;;;;;;4972115;28;20543;-80
2022/11/29 10:31:27;;;;;;;8.97;6.20;;;6.20;99.90;;;;;;4990093;28;20483;-80
2022/11/29 10:33:55;;;;;;;6.07;4.23;;;6.20;99.90;;;;;;4991413;28;20022;-80
2022/11/29 10:36:39;;;;;;;4.50;3.27;;;6.20;99.90;;;;;;4991388;28;20527;-80
2022/11/29 10:39:11;;;;;;;4.30;3.30;;;6.30;99.90;;;;;;4991531;28;20027;-80
2022/11/29 10:41:37;;;;;;;17.87;10.87;;;6.30;99.90;;;;;;4991621;28;20454;-80
2022/11/29 10:44:03;;;;;;;7.63;5.20;;;6.30;99.90;;;;;;4992117;28;20022;-80
2022/11/29 10:46:35;;;;;;;15.10;8.47;;;6.30;99.90;;;;;;4992150;28;20033;-80
2022/11/29 10:49:06;;;;;;;15.03;7.83;;;6.30;99.90;;;;;;4979539;28;20023;-80
2022/11/29 10:51:35;;;;;;;19.47;11.30;;;6.30;99.90;;;;;;4972833;28;20468;-80
2022/11/29 10:54:31;;;;;;;6.43;4.03;;;6.30;99.90;;;;;;4991575;28;20026;-80
2022/11/29 10:56:59;;;;;;;6.03;3.53;;;6.40;99.90;;;;;;4968860;28;20110;-80
2022/11/29 10:59:26;;;;;;;13.93;10.07;;;6.40;99.90;;;;;;4985075;28;20040;-81
2022/11/29 11:01:53;;;;;;;7.83;5.57;;;6.40;99.90;;;;;;4991729;28;20031;-81
2022/11/29 11:04:41;;;;;;;5.67;3.73;;;6.40;99.90;;;;;;4992193;28;20030;-81
2022/11/29 11:07:19;;;;;;;7.97;4.87;;;6.40;99.90;;;;;;4992309;28;20482;-80
2022/11/29 11:09:52;;;;;;;5.83;4.10;;;6.40;99.90;;;;;;4992444;28;20026;-81
2022/11/29 11:12:20;;;;;;;10.23;5.50;;;6.40;99.90;;;;;;4992292;28;20041;-81
2022/11/29 11:14:46;;;;;;;5.63;3.60;;;6.50;99.90;;;;;;4992389;28;20365;-81
2022/11/29 11:17:21;;;;;;;24.70;16.43;;;6.50;99.90;;;;;;4992518;28;20037;-81
2022/11/29 11:19:59;;;;;;;7.03;4.20;;;6.50;99.90;;;;;;4991611;28;20041;-80
2022/11/29 11:22:26;;;;;;;46.93;29.87;;;6.60;99.90;;;;;;4991301;28;20369;-80
2022/11/29 11:24:57;;;;;;;10.70;6.60;;;6.60;99.90;;;;;;4990711;28;20027;-79
2022/11/29 11:27:49;;;;;;;6.37;3.83;;;6.60;99.90;;;;;;4990359;28;20352;-79
2022/11/29 11:30:25;;;;;;;14.60;10.67;;;6.70;99.90;;;;;;4981630;28;20096;-79
2022/11/29 11:33:28;;;;;;;8.40;6.17;;;6.60;99.90;;;;;;4990661;28;20105;-78
2022/11/29 11:36:01;;;;;;;6.77;5.00;;;6.60;99.90;;;;;;4989080;28;20396;-78
2022/11/29 11:38:27;;;;;;;6.73;4.23;;;6.60;99.90;;;;;;4988587;28;20621;-78
2022/11/29 11:42:35;;;;;;;4.83;3.43;;;6.60;99.90;;;;;;4991407;28;20039;-79
2022/11/29 11:44:26;;;;;;;10.23;6.32;;;6.60;99.90;;;;;;4991842;28;20278;-81
2022/11/29 11:46:52;;;;;;;8.37;5.27;;;6.70;99.90;;;;;;4989564;28;20495;-81
2022/11/29 11:49:44;;;;;;;3.77;2.87;;;6.70;99.90;;;;;;4992358;28;20022;-81
2022/11/29 11:52:19;;;;;;;12.33;8.00;;;6.70;99.90;;;;;;4991505;28;20277;-81
2022/11/29 11:54:53;;;;;;;6.32;4.75;;;6.70;99.90;;;;;;4991229;28;20029;-81
2022/11/29 11:57:21;;;;;;;5.57;3.03;;;6.60;99.90;;;;;;4990610;28;20038;-81
2022/11/29 11:59:49;;;;;;;3.80;3.00;;;6.60;99.90;;;;;;4990647;28;20111;-81
2022/11/29 12:02:37;;;;;;;5.73;2.93;;;6.60;99.90;;;;;;4972382;28;20027;-81
2022/11/29 12:05:10;;;;;;;5.07;2.70;;;6.60;99.90;;;;;;4994702;28;20056;-81
2022/11/29 12:07:47;;;;;;;10.27;5.30;;;6.70;99.90;;;;;;4992684;28;20034;-81
2022/11/29 12:10:23;;;;;;;15.17;9.17;;;6.70;99.90;;;;;;4997102;28;20105;-81
2022/11/29 12:12:50;;;;;;;6.43;3.60;;;6.70;99.90;;;;;;4975802;28;20033;-81
2022/11/29 12:15:17;;;;;;;16.03;8.17;;;6.70;99.90;;;;;;4996750;28;20032;-81
2022/11/29 12:17:54;;;;;;;10.13;6.07;;;6.70;99.90;;;;;;4991509;28;20038;-81
2022/11/29 12:20:47;;;;;;;4.90;3.10;;;6.70;99.90;;;;;;4998047;28;20033;-81
2022/11/29 12:23:12;;;;;;;6.27;3.50;;;6.70;99.90;;;;;;4991743;28;21364;-81
2022/11/29 12:25:51;;;;;;;7.30;5.20;;;6.70;99.90;;;;;;4993766;28;20030;-81
2022/11/29 12:28:18;;;;;;;13.60;8.57;;;6.70;99.90;;;;;;4994118;28;20030;-81
2022/11/29 12:31:05;;;;;;;10.57;5.03;;;6.70;99.90;;;;;;4996726;28;20051;-80
2022/11/29 12:33:51;;;;;;;10.27;6.13;;;6.70;99.90;;;;;;4996490;28;20034;-81
2022/11/29 12:36:23;;;;;;;;;;;6.70;99.90;;;;;;4963871;28;20054;-81
2022/11/29 12:38:56;;;;;;;8.80;6.00;;;6.70;99.90;;;;;;4993485;28;19944;-81
2022/11/29 12:41:50;;;;;;;11.50;8.33;;;6.70;99.90;;;;;;5000848;28;20025;-81
2022/11/29 12:44:40;;;;;;;7.00;5.37;;;6.60;99.90;;;;;;4996570;28;20042;-81
2022/11/29 12:47:36;;;;;;;6.67;3.27;;;6.60;99.90;;;;;;4991628;28;20033;-81
2022/11/29 12:50:21;;;;;;;4.67;3.33;;;6.70;99.90;;;;;;4995662;28;20182;-81
2022/11/29 12:53:01;;;;;;;9.00;3.93;;;6.70;99.90;;;;;;4993108;28;20034;-81
2022/11/29 12:55:48;;;;;;;6.13;3.00;;;6.70;99.90;;;;;;4997739;28;20495;-81
2022/11/29 12:58:35;;;;;;;5.73;3.90;;;6.70;99.90;;;;;;4996549;28;20023;-81
2022/11/29 13:01:00;;;;;;;3.73;3.13;;;6.70;99.90;;;;;;4998681;28;20021;-81
2022/11/29 13:03:37;;;;;;;4.63;3.23;;;6.60;99.90;;;;;;4996276;28;20041;-81
2022/11/29 13:06:06;;;;;;;6.47;3.10;;;6.60;99.90;;;;;;4994150;28;20054;-81
2022/11/29 13:08:52;;;;;;;2.90;2.27;;;6.70;99.90;;;;;;4979150;28;20534;-81
2022/11/29 13:11:32;;;;;;;3.03;2.40;;;6.60;99.90;;;;;;4977741;28;20386;-81
2022/11/29 13:14:12;;;;;;;5.10;2.77;;;6.60;99.90;;;;;;4994931;28;20023;-81
2022/11/29 13:16:44;;;;;;;3.47;2.53;;;6.60;99.90;;;;;;4996737;28;20137;-81
2022/11/29 13:19:20;;;;;;;4.80;2.73;;;6.60;99.90;;;;;;4996670;28;20443;-81
2022/11/29 13:22:13;;;;;;;5.40;3.03;;;6.60;99.90;;;;;;4992532;28;20057;-81
2022/11/29 13:24:53;;;;;;;4.60;3.00;;;6.50;99.90;;;;;;4994221;28;20031;-81
2022/11/29 13:27:26;;;;;;;5.57;3.57;;;6.50;99.90;;;;;;5000283;28;20114;-81
2022/11/29 13:29:54;;;;;;;5.13;4.07;;;6.50;99.90;;;;;;4997882;28;20050;-82
2022/11/29 13:32:38;;;;;;;4.70;3.80;;;6.50;99.90;;;;;;4999157;28;20022;-81
2022/11/29 13:35:21;;;;;;;10.30;4.97;;;6.50;99.90;;;;;;4997680;28;20117;-81
2022/11/29 13:37:56;;;;;;;7.53;5.37;;;6.50;99.90;;;;;;4982762;28;20140;-82
2022/11/29 13:40:37;;;;;;;11.48;8.40;;;6.50;99.90;;;;;;4997258;28;20026;-81
2022/11/29 13:43:05;;;;;;;8.57;5.80;;;6.40;99.90;;;;;;4995579;28;20483;-82
2022/11/29 13:45:34;;;;;;;9.10;5.37;;;6.40;99.90;;;;;;4994432;28;20034;-81
2022/11/29 13:48:19;;;;;;;8.23;6.37;;;6.40;99.90;;;;;;4997965;28;20022;-82
2022/11/29 13:50:45;;;;;;;9.52;5.80;;;6.40;99.90;;;;;;5003590;28;20067;-81